sensor_id;sensor_type;location;lat;lon;timestamp;P1;durP1;ratioP1;P2;durP2;ratioP2
3726;SDS011;1879;45.876;12.300;2022-07-23T00:00:19;13.70;;;12.60;;
3726;SDS011;1879;45.876;12.300;2022-07-23T00:02:47;14.67;;;13.47;;
3726;SDS011;1879;45.876;12.300;2022-07-23T00:05:15;14.73;;;13.50;;
3726;SDS011;1879;45.876;12.300;2022-07-23T00:07:42;14.00;;;12.70;;
3726;SDS011;1879;45.876;12.300;2022-07-23T00:10:09;14.07;;;12.67;;
3726;SDS011;1879;45.876;12.300;2022-07-23T00:12:37;15.27;;;13.80;;
3726;SDS011;1879;45.876;12.300;2022-07-23T00:15:05;14.50;;;13.03;;
3726;SDS011;1879;45.876;12.300;2022-07-23T00:17:33;14.07;;;12.57;;
3726;SDS011;1879;45.876;12.300;2022-07-23T00:20:00;14.37;;;12.90;;
3726;SDS011;1879;45.876;12.300;2022-07-23T00:22:29;13.80;;;12.53;;
3726;SDS011;1879;45.876;12.300;2022-07-23T00:24:56;14.17;;;12.90;;
3726;SDS011;1879;45.876;12.300;2022-07-23T00:27:23;15.57;;;14.27;;
3726;SDS011;1879;45.876;12.300;2022-07-23T00:29:50;14.30;;;13.10;;
3726;SDS011;1879;45.876;12.300;2022-07-23T00:32:17;14.23;;;13.00;;
3726;SDS011;1879;45.876;12.300;2022-07-23T00:34:44;15.83;;;14.23;;
3726;SDS011;1879;45.876;12.300;2022-07-23T00:37:11;14.87;;;13.47;;
3726;SDS011;1879;45.876;12.300;2022-07-23T00:39:39;15.57;;;14.07;;
3726;SDS011;1879;45.876;12.300;2022-07-23T00:42:06;15.63;;;14.33;;
3726;SDS011;1879;45.876;12.300;2022-07-23T00:44:33;15.70;;;14.30;;
3726;SDS011;1879;45.876;12.300;2022-07-23T00:47:00;15.90;;;14.23;;
3726;SDS011;1879;45.876;12.300;2022-07-23T00:49:28;15.80;;;14.40;;
3726;SDS011;1879;45.876;12.300;2022-07-23T00:51:56;16.37;;;14.80;;
3726;SDS011;1879;45.876;12.300;2022-07-23T00:54:24;16.00;;;14.50;;
3726;SDS011;1879;45.876;12.300;2022-07-23T00:56:54;15.70;;;14.40;;
3726;SDS011;1879;45.876;12.300;2022-07-23T00:59:21;16.00;;;14.60;;
3726;SDS011;1879;45.876;12.300;2022-07-23T01:01:48;15.40;;;14.00;;
3726;SDS011;1879;45.876;12.300;2022-07-23T01:04:15;16.20;;;14.87;;
3726;SDS011;1879;45.876;12.300;2022-07-23T01:06:43;15.00;;;13.80;;
3726;SDS011;1879;45.876;12.300;2022-07-23T01:09:12;17.17;;;15.77;;
3726;SDS011;1879;45.876;12.300;2022-07-23T01:11:39;15.73;;;14.23;;
3726;SDS011;1879;45.876;12.300;2022-07-23T01:14:09;15.83;;;14.47;;
3726;SDS011;1879;45.876;12.300;2022-07-23T01:16:37;16.27;;;14.77;;
3726;SDS011;1879;45.876;12.300;2022-07-23T01:19:04;14.97;;;13.67;;
3726;SDS011;1879;45.876;12.300;2022-07-23T01:21:32;15.90;;;14.50;;
3726;SDS011;1879;45.876;12.300;2022-07-23T01:24:03;15.93;;;14.37;;
3726;SDS011;1879;45.876;12.300;2022-07-23T01:26:31;16.60;;;15.10;;
3726;SDS011;1879;45.876;12.300;2022-07-23T01:28:58;16.60;;;15.27;;
3726;SDS011;1879;45.876;12.300;2022-07-23T01:31:25;18.17;;;15.13;;
3726;SDS011;1879;45.876;12.300;2022-07-23T01:33:52;16.00;;;14.37;;
3726;SDS011;1879;45.876;12.300;2022-07-23T01:36:19;15.97;;;14.57;;
3726;SDS011;1879;45.876;12.300;2022-07-23T01:38:47;16.43;;;14.80;;
3726;SDS011;1879;45.876;12.300;2022-07-23T01:41:16;17.30;;;15.60;;
3726;SDS011;1879;45.876;12.300;2022-07-23T01:43:43;16.73;;;14.50;;
3726;SDS011;1879;45.876;12.300;2022-07-23T01:46:12;16.80;;;15.40;;
3726;SDS011;1879;45.876;12.300;2022-07-23T01:48:39;15.90;;;14.60;;
3726;SDS011;1879;45.876;12.300;2022-07-23T01:51:06;16.03;;;14.53;;
3726;SDS011;1879;45.876;12.300;2022-07-23T01:53:33;16.67;;;15.03;;
3726;SDS011;1879;45.876;12.300;2022-07-23T01:56:01;15.50;;;14.23;;
3726;SDS011;1879;45.876;12.300;2022-07-23T01:58:31;17.90;;;16.00;;
3726;SDS011;1879;45.876;12.300;2022-07-23T02:00:58;16.83;;;14.20;;
3726;SDS011;1879;45.876;12.300;2022-07-23T02:03:25;15.33;;;14.00;;
3726;SDS011;1879;45.876;12.300;2022-07-23T02:05:52;15.07;;;13.80;;
3726;SDS011;1879;45.876;12.300;2022-07-23T02:08:19;16.20;;;14.70;;
3726;SDS011;1879;45.876;12.300;2022-07-23T02:10:46;16.27;;;14.83;;
3726;SDS011;1879;45.876;12.300;2022-07-23T02:13:16;14.73;;;13.47;;
3726;SDS011;1879;45.876;12.300;2022-07-23T02:15:45;16.17;;;14.40;;
3726;SDS011;1879;45.876;12.300;2022-07-23T02:18:12;16.20;;;14.80;;
3726;SDS011;1879;45.876;12.300;2022-07-23T02:20:39;15.23;;;13.83;;
3726;SDS011;1879;45.876;12.300;2022-07-23T02:23:06;15.93;;;14.50;;
3726;SDS011;1879;45.876;12.300;2022-07-23T02:25:33;15.60;;;14.10;;
3726;SDS011;1879;45.876;12.300;2022-07-23T02:28:00;15.93;;;14.43;;
3726;SDS011;1879;45.876;12.300;2022-07-23T02:30:27;16.10;;;14.70;;
3726;SDS011;1879;45.876;12.300;2022-07-23T02:32:56;15.63;;;14.33;;
3726;SDS011;1879;45.876;12.300;2022-07-23T02:35:23;15.10;;;13.67;;
3726;SDS011;1879;45.876;12.300;2022-07-23T02:37:50;16.50;;;14.80;;
3726;SDS011;1879;45.876;12.300;2022-07-23T02:40:17;15.87;;;14.23;;
3726;SDS011;1879;45.876;12.300;2022-07-23T02:42:45;14.33;;;13.13;;
3726;SDS011;1879;45.876;12.300;2022-07-23T02:45:12;14.53;;;13.23;;
3726;SDS011;1879;45.876;12.300;2022-07-23T02:47:39;15.33;;;14.13;;
3726;SDS011;1879;45.876;12.300;2022-07-23T02:50:08;15.70;;;14.30;;
3726;SDS011;1879;45.876;12.300;2022-07-23T02:52:37;13.67;;;12.47;;
3726;SDS011;1879;45.876;12.300;2022-07-23T02:55:04;14.57;;;13.20;;
3726;SDS011;1879;45.876;12.300;2022-07-23T02:57:32;15.67;;;14.17;;
3726;SDS011;1879;45.876;12.300;2022-07-23T02:59:59;14.33;;;13.23;;
3726;SDS011;1879;45.876;12.300;2022-07-23T03:02:26;15.30;;;13.80;;
3726;SDS011;1879;45.876;12.300;2022-07-23T03:04:53;15.50;;;14.00;;
3726;SDS011;1879;45.876;12.300;2022-07-23T03:07:22;17.00;;;13.70;;
3726;SDS011;1879;45.876;12.300;2022-07-23T03:09:49;16.40;;;14.90;;
3726;SDS011;1879;45.876;12.300;2022-07-23T03:12:16;15.60;;;14.17;;
3726;SDS011;1879;45.876;12.300;2022-07-23T03:14:43;15.13;;;13.83;;
3726;SDS011;1879;45.876;12.300;2022-07-23T03:17:10;14.57;;;13.37;;
3726;SDS011;1879;45.876;12.300;2022-07-23T03:19:37;15.73;;;13.93;;
3726;SDS011;1879;45.876;12.300;2022-07-23T03:22:04;15.27;;;13.90;;
3726;SDS011;1879;45.876;12.300;2022-07-23T03:24:32;15.10;;;13.80;;
3726;SDS011;1879;45.876;12.300;2022-07-23T03:27:17;14.73;;;13.23;;
3726;SDS011;1879;45.876;12.300;2022-07-23T03:29:45;14.90;;;13.40;;
3726;SDS011;1879;45.876;12.300;2022-07-23T03:32:12;14.53;;;13.33;;
3726;SDS011;1879;45.876;12.300;2022-07-23T03:34:39;15.17;;;13.70;;
3726;SDS011;1879;45.876;12.300;2022-07-23T03:37:06;15.40;;;14.00;;
3726;SDS011;1879;45.876;12.300;2022-07-23T03:39:35;14.53;;;13.13;;
3726;SDS011;1879;45.876;12.300;2022-07-23T03:42:02;14.73;;;13.57;;
3726;SDS011;1879;45.876;12.300;2022-07-23T03:44:29;15.50;;;14.00;;
3726;SDS011;1879;45.876;12.300;2022-07-23T03:46:56;15.10;;;13.80;;
3726;SDS011;1879;45.876;12.300;2022-07-23T03:49:24;14.87;;;13.57;;
3726;SDS011;1879;45.876;12.300;2022-07-23T03:51:51;16.73;;;15.10;;
3726;SDS011;1879;45.876;12.300;2022-07-23T03:54:18;15.67;;;14.27;;
3726;SDS011;1879;45.876;12.300;2022-07-23T03:56:46;16.07;;;14.60;;
3726;SDS011;1879;45.876;12.300;2022-07-23T03:59:13;15.40;;;14.07;;
3726;SDS011;1879;45.876;12.300;2022-07-23T04:01:40;16.00;;;14.60;;
3726;SDS011;1879;45.876;12.300;2022-07-23T04:04:07;16.63;;;15.03;;
3726;SDS011;1879;45.876;12.300;2022-07-23T04:06:34;14.60;;;13.40;;
3726;SDS011;1879;45.876;12.300;2022-07-23T04:09:02;16.10;;;14.60;;
3726;SDS011;1879;45.876;12.300;2022-07-23T04:11:29;16.43;;;14.93;;
3726;SDS011;1879;45.876;12.300;2022-07-23T04:13:58;15.93;;;14.63;;
3726;SDS011;1879;45.876;12.300;2022-07-23T04:16:25;15.73;;;14.23;;
3726;SDS011;1879;45.876;12.300;2022-07-23T04:18:51;15.83;;;14.37;;
3726;SDS011;1879;45.876;12.300;2022-07-23T04:21:18;14.77;;;13.43;;
3726;SDS011;1879;45.876;12.300;2022-07-23T04:23:46;18.03;;;16.53;;
3726;SDS011;1879;45.876;12.300;2022-07-23T04:26:13;16.07;;;14.57;;
3726;SDS011;1879;45.876;12.300;2022-07-23T04:28:40;16.47;;;15.07;;
3726;SDS011;1879;45.876;12.300;2022-07-23T04:31:09;15.90;;;14.50;;
3726;SDS011;1879;45.876;12.300;2022-07-23T04:33:36;15.50;;;14.20;;
3726;SDS011;1879;45.876;12.300;2022-07-23T04:36:03;15.57;;;14.30;;
3726;SDS011;1879;45.876;12.300;2022-07-23T04:38:30;15.20;;;13.87;;
3726;SDS011;1879;45.876;12.300;2022-07-23T04:40:58;15.73;;;14.43;;
3726;SDS011;1879;45.876;12.300;2022-07-23T04:43:25;16.30;;;14.80;;
3726;SDS011;1879;45.876;12.300;2022-07-23T04:45:52;15.83;;;14.53;;
3726;SDS011;1879;45.876;12.300;2022-07-23T04:48:20;15.07;;;13.67;;
3726;SDS011;1879;45.876;12.300;2022-07-23T04:50:47;15.60;;;14.20;;
3726;SDS011;1879;45.876;12.300;2022-07-23T04:53:14;15.40;;;13.90;;
3726;SDS011;1879;45.876;12.300;2022-07-23T04:55:43;15.30;;;13.90;;
3726;SDS011;1879;45.876;12.300;2022-07-23T04:58:10;15.10;;;13.80;;
3726;SDS011;1879;45.876;12.300;2022-07-23T05:00:37;16.10;;;14.67;;
3726;SDS011;1879;45.876;12.300;2022-07-23T05:03:04;16.80;;;15.07;;
3726;SDS011;1879;45.876;12.300;2022-07-23T05:05:32;14.67;;;13.27;;
3726;SDS011;1879;45.876;12.300;2022-07-23T05:08:01;15.90;;;14.60;;
3726;SDS011;1879;45.876;12.300;2022-07-23T05:10:27;16.20;;;14.77;;
3726;SDS011;1879;45.876;12.300;2022-07-23T05:12:54;15.80;;;14.40;;
3726;SDS011;1879;45.876;12.300;2022-07-23T05:15:25;17.20;;;15.53;;
3726;SDS011;1879;45.876;12.300;2022-07-23T05:17:51;16.20;;;14.80;;
3726;SDS011;1879;45.876;12.300;2022-07-23T05:20:18;16.80;;;15.20;;
3726;SDS011;1879;45.876;12.300;2022-07-23T05:22:47;14.10;;;12.90;;
3726;SDS011;1879;45.876;12.300;2022-07-23T05:25:14;15.47;;;13.97;;
3726;SDS011;1879;45.876;12.300;2022-07-23T05:27:41;16.70;;;15.00;;
3726;SDS011;1879;45.876;12.300;2022-07-23T05:30:09;15.73;;;14.53;;
3726;SDS011;1879;45.876;12.300;2022-07-23T05:32:36;15.63;;;14.23;;
3726;SDS011;1879;45.876;12.300;2022-07-23T05:35:04;15.17;;;13.73;;
3726;SDS011;1879;45.876;12.300;2022-07-23T05:37:32;17.73;;;15.43;;
3726;SDS011;1879;45.876;12.300;2022-07-23T05:40:01;16.30;;;14.67;;
3726;SDS011;1879;45.876;12.300;2022-07-23T05:42:29;16.47;;;15.07;;
3726;SDS011;1879;45.876;12.300;2022-07-23T05:44:56;16.53;;;14.90;;
3726;SDS011;1879;45.876;12.300;2022-07-23T05:47:23;16.07;;;14.40;;
3726;SDS011;1879;45.876;12.300;2022-07-23T05:49:50;15.07;;;13.73;;
3726;SDS011;1879;45.876;12.300;2022-07-23T05:52:17;15.80;;;14.20;;
3726;SDS011;1879;45.876;12.300;2022-07-23T05:54:44;16.57;;;15.07;;
3726;SDS011;1879;45.876;12.300;2022-07-23T05:57:12;15.37;;;13.90;;
3726;SDS011;1879;45.876;12.300;2022-07-23T05:59:39;14.60;;;13.20;;
3726;SDS011;1879;45.876;12.300;2022-07-23T06:02:06;16.00;;;14.60;;
3726;SDS011;1879;45.876;12.300;2022-07-23T06:04:33;16.10;;;14.57;;
3726;SDS011;1879;45.876;12.300;2022-07-23T06:07:00;15.73;;;14.33;;
3726;SDS011;1879;45.876;12.300;2022-07-23T06:09:27;17.27;;;14.90;;
3726;SDS011;1879;45.876;12.300;2022-07-23T06:11:54;15.90;;;14.60;;
3726;SDS011;1879;45.876;12.300;2022-07-23T06:14:23;16.23;;;14.93;;
3726;SDS011;1879;45.876;12.300;2022-07-23T06:16:49;16.13;;;14.70;;
3726;SDS011;1879;45.876;12.300;2022-07-23T06:19:17;16.73;;;14.93;;
3726;SDS011;1879;45.876;12.300;2022-07-23T06:21:44;15.67;;;14.30;;
3726;SDS011;1879;45.876;12.300;2022-07-23T06:24:11;17.27;;;15.53;;
3726;SDS011;1879;45.876;12.300;2022-07-23T06:26:38;17.30;;;15.47;;
3726;SDS011;1879;45.876;12.300;2022-07-23T06:29:04;15.70;;;14.27;;
3726;SDS011;1879;45.876;12.300;2022-07-23T06:31:33;16.10;;;14.60;;
3726;SDS011;1879;45.876;12.300;2022-07-23T06:34:01;16.40;;;15.10;;
3726;SDS011;1879;45.876;12.300;2022-07-23T06:36:28;15.23;;;13.70;;
3726;SDS011;1879;45.876;12.300;2022-07-23T06:38:55;16.37;;;14.97;;
3726;SDS011;1879;45.876;12.300;2022-07-23T06:41:22;16.10;;;14.70;;
3726;SDS011;1879;45.876;12.300;2022-07-23T06:43:49;15.50;;;14.07;;
3726;SDS011;1879;45.876;12.300;2022-07-23T06:46:19;14.93;;;13.70;;
3726;SDS011;1879;45.876;12.300;2022-07-23T06:48:48;16.27;;;14.87;;
3726;SDS011;1879;45.876;12.300;2022-07-23T06:51:15;15.23;;;13.77;;
3726;SDS011;1879;45.876;12.300;2022-07-23T06:53:42;15.87;;;14.57;;
3726;SDS011;1879;45.876;12.300;2022-07-23T06:56:09;15.43;;;13.93;;
3726;SDS011;1879;45.876;12.300;2022-07-23T06:58:36;16.00;;;13.97;;
3726;SDS011;1879;45.876;12.300;2022-07-23T07:01:02;15.47;;;14.20;;
3726;SDS011;1879;45.876;12.300;2022-07-23T07:03:30;15.17;;;13.77;;
3726;SDS011;1879;45.876;12.300;2022-07-23T07:05:58;15.17;;;13.70;;
3726;SDS011;1879;45.876;12.300;2022-07-23T07:08:25;14.17;;;13.00;;
3726;SDS011;1879;45.876;12.300;2022-07-23T07:10:52;14.47;;;13.07;;
3726;SDS011;1879;45.876;12.300;2022-07-23T07:13:19;14.97;;;13.60;;
3726;SDS011;1879;45.876;12.300;2022-07-23T07:15:46;14.50;;;13.30;;
3726;SDS011;1879;45.876;12.300;2022-07-23T07:18:13;14.20;;;13.00;;
3726;SDS011;1879;45.876;12.300;2022-07-23T07:20:40;14.67;;;13.30;;
3726;SDS011;1879;45.876;12.300;2022-07-23T07:23:08;14.50;;;13.30;;
3726;SDS011;1879;45.876;12.300;2022-07-23T07:25:35;14.50;;;13.30;;
3726;SDS011;1879;45.876;12.300;2022-07-23T07:28:03;13.87;;;12.77;;
3726;SDS011;1879;45.876;12.300;2022-07-23T07:30:30;13.63;;;12.57;;
3726;SDS011;1879;45.876;12.300;2022-07-23T07:32:57;15.07;;;13.60;;
3726;SDS011;1879;45.876;12.300;2022-07-23T07:35:24;15.07;;;13.77;;
3726;SDS011;1879;45.876;12.300;2022-07-23T07:37:51;15.00;;;13.80;;
3726;SDS011;1879;45.876;12.300;2022-07-23T07:40:20;14.17;;;12.87;;
3726;SDS011;1879;45.876;12.300;2022-07-23T07:42:47;13.20;;;12.00;;
3726;SDS011;1879;45.876;12.300;2022-07-23T07:45:15;15.03;;;13.50;;
3726;SDS011;1879;45.876;12.300;2022-07-23T07:47:43;13.77;;;12.57;;
3726;SDS011;1879;45.876;12.300;2022-07-23T07:50:10;14.13;;;12.93;;
3726;SDS011;1879;45.876;12.300;2022-07-23T07:52:37;14.70;;;12.77;;
3726;SDS011;1879;45.876;12.300;2022-07-23T07:55:04;14.10;;;12.80;;
3726;SDS011;1879;45.876;12.300;2022-07-23T07:57:34;14.37;;;13.27;;
3726;SDS011;1879;45.876;12.300;2022-07-23T08:00:01;14.93;;;13.60;;
3726;SDS011;1879;45.876;12.300;2022-07-23T08:02:31;14.70;;;13.50;;
3726;SDS011;1879;45.876;12.300;2022-07-23T08:05:06;14.83;;;13.53;;
3726;SDS011;1879;45.876;12.300;2022-07-23T08:07:34;14.53;;;13.33;;
3726;SDS011;1879;45.876;12.300;2022-07-23T08:10:02;14.23;;;13.00;;
3726;SDS011;1879;45.876;12.300;2022-07-23T08:12:38;14.80;;;13.40;;
3726;SDS011;1879;45.876;12.300;2022-07-23T08:15:06;14.20;;;12.90;;
3726;SDS011;1879;45.876;12.300;2022-07-23T08:17:35;13.50;;;12.30;;
3726;SDS011;1879;45.876;12.300;2022-07-23T08:20:02;13.17;;;12.20;;
3726;SDS011;1879;45.876;12.300;2022-07-23T08:22:43;14.40;;;13.10;;
3726;SDS011;1879;45.876;12.300;2022-07-23T08:25:14;15.60;;;14.30;;
3726;SDS011;1879;45.876;12.300;2022-07-23T08:27:43;14.33;;;13.13;;
3726;SDS011;1879;45.876;12.300;2022-07-23T08:30:10;14.63;;;13.37;;
3726;SDS011;1879;45.876;12.300;2022-07-23T08:32:50;15.33;;;14.03;;
3726;SDS011;1879;45.876;12.300;2022-07-23T08:35:23;15.03;;;13.87;;
3726;SDS011;1879;45.876;12.300;2022-07-23T08:37:52;16.87;;;14.93;;
3726;SDS011;1879;45.876;12.300;2022-07-23T08:40:20;15.40;;;13.90;;
3726;SDS011;1879;45.876;12.300;2022-07-23T08:42:49;14.70;;;13.53;;
3726;SDS011;1879;45.876;12.300;2022-07-23T08:45:17;15.67;;;14.43;;
3726;SDS011;1879;45.876;12.300;2022-07-23T08:47:47;15.13;;;13.93;;
3726;SDS011;1879;45.876;12.300;2022-07-23T08:50:19;14.43;;;13.33;;
3726;SDS011;1879;45.876;12.300;2022-07-23T08:52:46;14.60;;;13.50;;
3726;SDS011;1879;45.876;12.300;2022-07-23T08:55:15;15.10;;;13.70;;
3726;SDS011;1879;45.876;12.300;2022-07-23T08:57:43;14.27;;;13.10;;
3726;SDS011;1879;45.876;12.300;2022-07-23T09:00:12;15.30;;;14.00;;
3726;SDS011;1879;45.876;12.300;2022-07-23T09:02:40;14.50;;;13.40;;
3726;SDS011;1879;45.876;12.300;2022-07-23T09:05:08;14.10;;;12.90;;
3726;SDS011;1879;45.876;12.300;2022-07-23T09:07:36;15.47;;;14.00;;
3726;SDS011;1879;45.876;12.300;2022-07-23T09:10:05;15.33;;;14.07;;
3726;SDS011;1879;45.876;12.300;2022-07-23T09:12:33;16.27;;;14.70;;
3726;SDS011;1879;45.876;12.300;2022-07-23T09:15:04;14.80;;;13.70;;
3726;SDS011;1879;45.876;12.300;2022-07-23T09:17:38;15.57;;;14.37;;
3726;SDS011;1879;45.876;12.300;2022-07-23T09:20:10;16.53;;;15.23;;
3726;SDS011;1879;45.876;12.300;2022-07-23T09:22:38;16.47;;;15.17;;
3726;SDS011;1879;45.876;12.300;2022-07-23T09:25:07;16.67;;;15.23;;
3726;SDS011;1879;45.876;12.300;2022-07-23T09:27:46;15.37;;;14.27;;
3726;SDS011;1879;45.876;12.300;2022-07-23T09:30:15;16.70;;;15.40;;
3726;SDS011;1879;45.876;12.300;2022-07-23T09:32:44;18.10;;;16.07;;
3726;SDS011;1879;45.876;12.300;2022-07-23T09:35:42;17.03;;;15.63;;
3726;SDS011;1879;45.876;12.300;2022-07-23T09:38:10;17.77;;;16.27;;
3726;SDS011;1879;45.876;12.300;2022-07-23T09:40:37;18.73;;;17.07;;
3726;SDS011;1879;45.876;12.300;2022-07-23T09:43:04;19.00;;;17.60;;
3726;SDS011;1879;45.876;12.300;2022-07-23T09:45:31;17.60;;;16.20;;
3726;SDS011;1879;45.876;12.300;2022-07-23T09:48:10;18.80;;;17.30;;
3726;SDS011;1879;45.876;12.300;2022-07-23T09:50:39;23.13;;;21.23;;
3726;SDS011;1879;45.876;12.300;2022-07-23T09:53:06;19.50;;;17.97;;
3726;SDS011;1879;45.876;12.300;2022-07-23T09:55:34;19.00;;;17.50;;
3726;SDS011;1879;45.876;12.300;2022-07-23T09:58:04;22.60;;;20.80;;
3726;SDS011;1879;45.876;12.300;2022-07-23T10:00:34;17.13;;;15.53;;
3726;SDS011;1879;45.876;12.300;2022-07-23T10:03:02;15.27;;;14.03;;
3726;SDS011;1879;45.876;12.300;2022-07-23T10:05:32;18.77;;;17.13;;
3726;SDS011;1879;45.876;12.300;2022-07-23T10:08:01;15.03;;;13.50;;
3726;SDS011;1879;45.876;12.300;2022-07-23T10:10:29;21.97;;;20.03;;
3726;SDS011;1879;45.876;12.300;2022-07-23T10:12:57;21.80;;;20.07;;
3726;SDS011;1879;45.876;12.300;2022-07-23T10:15:43;20.00;;;18.40;;
3726;SDS011;1879;45.876;12.300;2022-07-23T10:18:10;17.33;;;15.83;;
3726;SDS011;1879;45.876;12.300;2022-07-23T10:20:39;19.80;;;18.10;;
3726;SDS011;1879;45.876;12.300;2022-07-23T10:23:10;18.33;;;16.83;;
3726;SDS011;1879;45.876;12.300;2022-07-23T10:25:46;17.20;;;15.83;;
3726;SDS011;1879;45.876;12.300;2022-07-23T10:28:40;17.90;;;16.60;;
3726;SDS011;1879;45.876;12.300;2022-07-23T10:31:17;18.20;;;16.70;;
3726;SDS011;1879;45.876;12.300;2022-07-23T10:33:56;15.10;;;13.97;;
3726;SDS011;1879;45.876;12.300;2022-07-23T10:36:44;17.03;;;15.50;;
3726;SDS011;1879;45.876;12.300;2022-07-23T10:39:17;14.97;;;13.77;;
3726;SDS011;1879;45.876;12.300;2022-07-23T10:41:48;15.73;;;14.43;;
3726;SDS011;1879;45.876;12.300;2022-07-23T10:44:17;15.07;;;13.77;;
3726;SDS011;1879;45.876;12.300;2022-07-23T10:46:55;13.40;;;12.30;;
3726;SDS011;1879;45.876;12.300;2022-07-23T10:49:37;15.23;;;14.03;;
3726;SDS011;1879;45.876;12.300;2022-07-23T10:52:18;13.53;;;12.40;;
3726;SDS011;1879;45.876;12.300;2022-07-23T10:54:48;13.30;;;12.40;;
3726;SDS011;1879;45.876;12.300;2022-07-23T10:57:16;12.87;;;11.87;;
3726;SDS011;1879;45.876;12.300;2022-07-23T11:02:43;12.17;;;11.23;;
3726;SDS011;1879;45.876;12.300;2022-07-23T11:05:12;13.03;;;12.07;;
3726;SDS011;1879;45.876;12.300;2022-07-23T11:10:44;14.03;;;13.00;;
3726;SDS011;1879;45.876;12.300;2022-07-23T11:13:26;12.53;;;11.63;;
3726;SDS011;1879;45.876;12.300;2022-07-23T11:16:12;13.63;;;12.27;;
3726;SDS011;1879;45.876;12.300;2022-07-23T11:18:59;13.13;;;12.23;;
3726;SDS011;1879;45.876;12.300;2022-07-23T11:24:23;14.77;;;13.37;;
3726;SDS011;1879;45.876;12.300;2022-07-23T11:26:58;14.47;;;13.33;;
3726;SDS011;1879;45.876;12.300;2022-07-23T11:29:40;14.10;;;13.10;;
3726;SDS011;1879;45.876;12.300;2022-07-23T11:32:24;13.43;;;12.43;;
3726;SDS011;1879;45.876;12.300;2022-07-23T11:35:19;12.37;;;11.37;;
3726;SDS011;1879;45.876;12.300;2022-07-23T11:37:48;12.40;;;11.50;;
3726;SDS011;1879;45.876;12.300;2022-07-23T11:40:20;13.80;;;12.70;;
3726;SDS011;1879;45.876;12.300;2022-07-23T11:42:51;11.40;;;10.60;;
3726;SDS011;1879;45.876;12.300;2022-07-23T11:45:22;12.63;;;11.60;;
3726;SDS011;1879;45.876;12.300;2022-07-23T11:47:50;12.30;;;11.40;;
3726;SDS011;1879;45.876;12.300;2022-07-23T11:50:17;11.93;;;11.03;;
3726;SDS011;1879;45.876;12.300;2022-07-23T11:52:44;11.70;;;10.90;;
3726;SDS011;1879;45.876;12.300;2022-07-23T11:55:11;10.80;;;10.00;;
3726;SDS011;1879;45.876;12.300;2022-07-23T11:57:42;11.33;;;10.37;;
3726;SDS011;1879;45.876;12.300;2022-07-23T12:00:11;11.30;;;10.47;;
3726;SDS011;1879;45.876;12.300;2022-07-23T12:02:41;10.70;;;9.90;;
3726;SDS011;1879;45.876;12.300;2022-07-23T12:05:10;10.43;;;9.63;;
3726;SDS011;1879;45.876;12.300;2022-07-23T12:07:39;10.40;;;9.40;;
3726;SDS011;1879;45.876;12.300;2022-07-23T12:10:09;9.17;;;8.47;;
3726;SDS011;1879;45.876;12.300;2022-07-23T12:12:40;9.37;;;8.77;;
3726;SDS011;1879;45.876;12.300;2022-07-23T12:15:10;9.57;;;8.97;;
3726;SDS011;1879;45.876;12.300;2022-07-23T12:17:39;9.80;;;9.10;;
3726;SDS011;1879;45.876;12.300;2022-07-23T12:20:07;11.90;;;8.70;;
3726;SDS011;1879;45.876;12.300;2022-07-23T12:22:38;10.10;;;9.30;;
3726;SDS011;1879;45.876;12.300;2022-07-23T12:25:11;9.30;;;8.60;;
3726;SDS011;1879;45.876;12.300;2022-07-23T12:27:40;10.23;;;9.33;;
3726;SDS011;1879;45.876;12.300;2022-07-23T12:32:58;9.40;;;8.70;;
3726;SDS011;1879;45.876;12.300;2022-07-23T12:35:30;8.90;;;8.20;;
3726;SDS011;1879;45.876;12.300;2022-07-23T12:38:00;9.50;;;8.80;;
3726;SDS011;1879;45.876;12.300;2022-07-23T12:40:29;9.57;;;8.87;;
3726;SDS011;1879;45.876;12.300;2022-07-23T12:43:00;10.07;;;9.37;;
3726;SDS011;1879;45.876;12.300;2022-07-23T12:45:28;10.53;;;9.70;;
3726;SDS011;1879;45.876;12.300;2022-07-23T12:48:14;10.30;;;9.27;;
3726;SDS011;1879;45.876;12.300;2022-07-23T12:50:44;8.83;;;8.23;;
3726;SDS011;1879;45.876;12.300;2022-07-23T12:53:15;8.10;;;7.60;;
3726;SDS011;1879;45.876;12.300;2022-07-23T12:55:44;8.60;;;7.90;;
3726;SDS011;1879;45.876;12.300;2022-07-23T12:58:15;10.03;;;9.13;;
3726;SDS011;1879;45.876;12.300;2022-07-23T13:00:57;10.67;;;9.87;;
3726;SDS011;1879;45.876;12.300;2022-07-23T13:03:30;9.30;;;8.60;;
3726;SDS011;1879;45.876;12.300;2022-07-23T13:06:00;9.33;;;8.53;;
3726;SDS011;1879;45.876;12.300;2022-07-23T13:08:29;9.47;;;8.57;;
3726;SDS011;1879;45.876;12.300;2022-07-23T13:11:00;9.10;;;8.40;;
3726;SDS011;1879;45.876;12.300;2022-07-23T13:13:30;9.50;;;8.70;;
3726;SDS011;1879;45.876;12.300;2022-07-23T13:15:58;9.27;;;8.37;;
3726;SDS011;1879;45.876;12.300;2022-07-23T13:18:26;9.53;;;8.73;;
3726;SDS011;1879;45.876;12.300;2022-07-23T13:20:54;9.50;;;8.73;;
3726;SDS011;1879;45.876;12.300;2022-07-23T13:23:21;9.67;;;8.97;;
3726;SDS011;1879;45.876;12.300;2022-07-23T13:25:49;9.87;;;9.07;;
3726;SDS011;1879;45.876;12.300;2022-07-23T13:28:16;9.27;;;8.63;;
3726;SDS011;1879;45.876;12.300;2022-07-23T13:30:46;11.00;;;10.10;;
3726;SDS011;1879;45.876;12.300;2022-07-23T13:33:15;10.63;;;9.83;;
3726;SDS011;1879;45.876;12.300;2022-07-23T13:35:43;11.27;;;10.37;;
3726;SDS011;1879;45.876;12.300;2022-07-23T13:38:10;12.13;;;11.23;;
3726;SDS011;1879;45.876;12.300;2022-07-23T13:40:39;10.83;;;10.03;;
3726;SDS011;1879;45.876;12.300;2022-07-23T13:43:07;12.27;;;11.37;;
3726;SDS011;1879;45.876;12.300;2022-07-23T13:45:34;12.50;;;11.60;;
3726;SDS011;1879;45.876;12.300;2022-07-23T13:48:04;12.40;;;11.60;;
3726;SDS011;1879;45.876;12.300;2022-07-23T13:50:32;14.23;;;13.03;;
3726;SDS011;1879;45.876;12.300;2022-07-23T13:53:00;14.03;;;12.93;;
3726;SDS011;1879;45.876;12.300;2022-07-23T13:55:28;12.57;;;11.50;;
3726;SDS011;1879;45.876;12.300;2022-07-23T13:57:55;12.70;;;11.80;;
3726;SDS011;1879;45.876;12.300;2022-07-23T14:00:22;14.03;;;12.93;;
3726;SDS011;1879;45.876;12.300;2022-07-23T14:02:49;14.27;;;12.97;;
3726;SDS011;1879;45.876;12.300;2022-07-23T14:05:18;16.30;;;15.00;;
3726;SDS011;1879;45.876;12.300;2022-07-23T14:07:45;14.67;;;13.67;;
3726;SDS011;1879;45.876;12.300;2022-07-23T14:10:14;15.37;;;14.17;;
3726;SDS011;1879;45.876;12.300;2022-07-23T14:12:42;14.40;;;13.30;;
3726;SDS011;1879;45.876;12.300;2022-07-23T14:15:10;15.37;;;14.07;;
3726;SDS011;1879;45.876;12.300;2022-07-23T14:17:38;15.13;;;13.83;;
3726;SDS011;1879;45.876;12.300;2022-07-23T14:20:09;13.43;;;12.30;;
3726;SDS011;1879;45.876;12.300;2022-07-23T14:22:39;14.23;;;13.23;;
3726;SDS011;1879;45.876;12.300;2022-07-23T14:25:09;15.20;;;14.10;;
3726;SDS011;1879;45.876;12.300;2022-07-23T14:27:37;15.00;;;13.90;;
3726;SDS011;1879;45.876;12.300;2022-07-23T14:30:05;13.30;;;12.23;;
3726;SDS011;1879;45.876;12.300;2022-07-23T14:32:33;14.30;;;13.20;;
3726;SDS011;1879;45.876;12.300;2022-07-23T14:35:02;14.27;;;13.10;;
3726;SDS011;1879;45.876;12.300;2022-07-23T14:37:29;14.40;;;13.30;;
3726;SDS011;1879;45.876;12.300;2022-07-23T14:39:58;14.63;;;13.60;;
3726;SDS011;1879;45.876;12.300;2022-07-23T14:42:25;14.73;;;13.30;;
3726;SDS011;1879;45.876;12.300;2022-07-23T14:44:52;13.93;;;12.93;;
3726;SDS011;1879;45.876;12.300;2022-07-23T14:47:19;13.57;;;12.57;;
3726;SDS011;1879;45.876;12.300;2022-07-23T14:49:46;12.90;;;11.80;;
3726;SDS011;1879;45.876;12.300;2022-07-23T14:52:14;13.50;;;12.60;;
3726;SDS011;1879;45.876;12.300;2022-07-23T14:54:41;13.07;;;12.07;;
3726;SDS011;1879;45.876;12.300;2022-07-23T14:57:09;12.93;;;11.90;;